Time;durP1;ratioP1;P1;durP2;ratioP2;P2;SDS_P1;SDS_P2;PMS_P1;PMS_P2;Temp;Humidity;BMP_temperature;BMP_pressure;BME280_temperature;BME280_humidity;BME280_pressure;Samples;Min_cycle;Max_cycle;Signal;HPM_P1;HPM_P2
2024/02/06 00:01:02;;;;;;;16.13;7.57;;;9.00;99.90;;;;;;4953599;28;20090;-76
2024/02/06 00:03:28;;;;;;;22.10;9.55;;;9.00;99.90;;;;;;4936349;29;20106;-72
2024/02/06 00:05:53;;;;;;;16.88;9.18;;;9.00;99.90;;;;;;4953193;28;20051;-74
2024/02/06 00:08:19;;;;;;;19.75;10.00;;;9.00;99.90;;;;;;4953220;28;20020;-75
2024/02/06 00:10:45;;;;;;;19.40;9.02;;;9.00;99.90;;;;;;4936015;29;20036;-73
2024/02/06 00:13:10;;;;;;;18.77;7.72;;;9.10;99.90;;;;;;4953930;28;20030;-73
2024/02/06 00:15:36;;;;;;;21.52;10.32;;;9.10;99.90;;;;;;4953643;28;20401;-75
2024/02/06 00:18:01;;;;;;;25.63;8.75;;;9.10;99.90;;;;;;4951380;28;20035;-73
2024/02/06 00:20:27;;;;;;;18.15;8.15;;;9.10;99.90;;;;;;4953686;28;20031;-73
2024/02/06 00:22:52;;;;;;;24.77;9.68;;;9.10;99.90;;;;;;4953236;28;20050;-71
2024/02/06 00:25:18;;;;;;;22.10;9.77;;;9.10;99.90;;;;;;4953273;29;20087;-74
2024/02/06 00:27:43;;;;;;;18.92;8.10;;;9.10;99.90;;;;;;4937129;29;20038;-76
2024/02/06 00:30:09;;;;;;;21.60;9.10;;;9.10;99.90;;;;;;4951766;28;20028;-74
2024/02/06 00:32:35;;;;;;;19.33;9.50;;;9.10;99.90;;;;;;4952773;28;20160;-75
2024/02/06 00:35:00;;;;;;;20.83;9.07;;;9.10;99.90;;;;;;4953062;28;20047;-76
2024/02/06 00:37:26;;;;;;;19.75;8.63;;;9.10;99.90;;;;;;4953526;28;20019;-73
2024/02/06 00:39:52;;;;;;;23.27;10.32;;;9.10;99.90;;;;;;4953089;28;20023;-74
2024/02/06 00:42:17;;;;;;;22.27;9.48;;;9.10;99.90;;;;;;4953578;28;20107;-75
2024/02/06 00:44:43;;;;;;;20.23;10.05;;;9.20;99.90;;;;;;4953449;28;20027;-74
2024/02/06 00:47:09;;;;;;;21.02;7.95;;;9.10;99.90;;;;;;4953239;28;20024;-74
2024/02/06 00:49:35;;;;;;;20.70;9.10;;;9.20;99.90;;;;;;4936283;29;20027;-72
2024/02/06 00:52:00;;;;;;;20.67;9.45;;;9.20;99.90;;;;;;4951617;29;20048;-72
2024/02/06 00:54:26;;;;;;;22.58;9.32;;;9.20;99.90;;;;;;4953968;28;20039;-75
2024/02/06 00:56:52;;;;;;;20.20;8.90;;;9.20;99.90;;;;;;4936053;28;20028;-75
2024/02/06 00:59:17;;;;;;;23.95;10.02;;;9.20;99.90;;;;;;4936422;29;20059;-74
2024/02/06 01:01:43;;;;;;;24.95;9.48;;;9.20;99.90;;;;;;4954538;29;20083;-75
2024/02/06 01:04:09;;;;;;;25.83;8.25;;;9.20;99.90;;;;;;4956819;28;20551;-74
2024/02/06 01:06:34;;;;;;;21.38;8.48;;;9.20;99.90;;;;;;4956123;28;20055;-75
2024/02/06 01:09:00;;;;;;;28.58;10.95;;;9.20;99.90;;;;;;4956277;28;20118;-73
2024/02/06 01:11:25;;;;;;;28.45;9.27;;;9.20;99.90;;;;;;4956390;28;20027;-73
2024/02/06 01:13:52;;;;;;;24.15;7.90;;;9.20;99.90;;;;;;4956225;28;20031;-75
2024/02/06 01:16:18;;;;;;;21.20;8.60;;;9.20;99.90;;;;;;4939468;29;20076;-73
2024/02/06 01:18:43;;;;;;;22.20;8.38;;;9.20;99.90;;;;;;4956105;28;20016;-73
2024/02/06 01:21:09;;;;;;;20.60;8.35;;;9.20;99.90;;;;;;4956336;29;20020;-73
2024/02/06 01:23:34;;;;;;;20.55;7.47;;;9.20;99.90;;;;;;4939156;28;20043;-74
2024/02/06 01:26:00;;;;;;;25.35;8.88;;;9.20;99.90;;;;;;4955952;28;20019;-73
2024/02/06 01:28:25;;;;;;;27.73;8.82;;;9.20;99.90;;;;;;4955984;28;20039;-75
2024/02/06 01:30:51;;;;;;;24.02;7.75;;;9.30;99.90;;;;;;4956122;28;20126;-71
2024/02/06 01:33:17;;;;;;;27.00;8.20;;;9.30;99.90;;;;;;4938904;29;20027;-75
2024/02/06 01:35:42;;;;;;;21.00;8.00;;;9.30;99.90;;;;;;4956128;28;20118;-73
2024/02/06 01:38:08;;;;;;;20.20;7.43;;;9.30;99.90;;;;;;4956367;28;20099;-73
2024/02/06 01:40:43;;;;;;;14.23;6.53;;;9.30;99.90;;;;;;4955807;28;20051;-75
2024/02/06 01:43:08;;;;;;;16.67;6.63;;;9.30;99.90;;;;;;4955568;28;20035;-76
2024/02/06 01:45:34;;;;;;;25.35;7.55;;;9.30;99.90;;;;;;4938858;29;20055;-74
2024/02/06 01:48:00;;;;;;;24.27;7.35;;;9.30;99.90;;;;;;4955517;28;20035;-75
2024/02/06 01:50:26;;;;;;;21.48;7.50;;;9.30;99.90;;;;;;4938709;29;20027;-74
2024/02/06 01:52:52;;;;;;;21.05;7.30;;;9.30;99.90;;;;;;4955800;29;20030;-72
2024/02/06 01:55:18;;;;;;;21.95;8.00;;;9.30;99.90;;;;;;4938347;29;20028;-76
2024/02/06 01:57:45;;;;;;;27.02;7.63;;;9.30;99.90;;;;;;4938463;29;20397;-73
2024/02/06 02:00:11;;;;;;;22.40;6.88;;;9.30;99.90;;;;;;4938689;29;20032;-74
2024/02/06 02:02:37;;;;;;;23.67;7.65;;;9.30;99.90;;;;;;4955195;28;20050;-75
2024/02/06 02:05:06;;;;;;;22.30;8.20;;;9.30;99.90;;;;;;4955162;29;20036;-76
2024/02/06 02:07:34;;;;;;;22.27;7.00;;;9.30;99.90;;;;;;4955558;29;20062;-73
2024/02/06 02:10:00;;;;;;;19.95;7.28;;;9.30;99.90;;;;;;4954717;28;20408;-74
2024/02/06 02:12:26;;;;;;;24.08;8.68;;;9.30;99.90;;;;;;4937014;28;20036;-75
2024/02/06 02:14:51;;;;;;;16.20;7.55;;;9.30;99.90;;;;;;4955033;28;20024;-75
2024/02/06 02:17:17;;;;;;;23.33;7.32;;;9.30;99.90;;;;;;4938194;29;20389;-78
2024/02/06 02:19:42;;;;;;;22.65;7.65;;;9.30;99.90;;;;;;4955151;28;20012;-76
2024/02/06 02:22:08;;;;;;;20.83;7.47;;;9.30;99.90;;;;;;4937902;29;20030;-76
2024/02/06 02:24:34;;;;;;;23.67;7.65;;;9.30;99.90;;;;;;4955323;28;20513;-75
2024/02/06 02:26:59;;;;;;;21.92;7.18;;;9.30;99.90;;;;;;4937980;28;20026;-75
2024/02/06 02:29:26;;;;;;;20.15;7.07;;;9.30;99.90;;;;;;4955084;29;20093;-74
2024/02/06 02:31:53;;;;;;;24.65;7.50;;;9.30;99.90;;;;;;4954802;28;20032;-73
2024/02/06 02:34:20;;;;;;;25.67;8.05;;;9.30;99.90;;;;;;4938078;29;20020;-70
2024/02/06 02:36:46;;;;;;;21.23;8.23;;;9.30;99.90;;;;;;4937689;29;20028;-70
2024/02/06 02:39:11;;;;;;;18.98;6.90;;;9.40;99.90;;;;;;4938022;29;20129;-69
2024/02/06 02:41:37;;;;;;;24.40;7.18;;;9.40;99.90;;;;;;4954969;28;20067;-70
2024/02/06 02:44:03;;;;;;;22.17;7.65;;;9.40;99.90;;;;;;4937096;28;20048;-73
2024/02/06 02:46:29;;;;;;;19.48;7.13;;;9.40;99.90;;;;;;4937376;28;20020;-76
2024/02/06 02:48:54;;;;;;;20.98;7.93;;;9.40;99.90;;;;;;4954797;28;20027;-72
2024/02/06 02:51:20;;;;;;;17.45;8.07;;;9.40;99.90;;;;;;4955025;28;20034;-70
2024/02/06 02:53:45;;;;;;;20.85;7.75;;;9.40;99.90;;;;;;4954683;28;20042;-74
2024/02/06 02:56:12;;;;;;;18.48;6.63;;;9.30;99.90;;;;;;4955233;28;20843;-72
2024/02/06 02:58:38;;;;;;;24.88;7.35;;;9.40;99.90;;;;;;4954357;28;20121;-71
2024/02/06 03:01:03;;;;;;;25.80;7.95;;;9.30;99.90;;;;;;4954608;28;20054;-73
2024/02/06 03:03:29;;;;;;;16.65;7.22;;;9.30;99.90;;;;;;4954522;28;20367;-74
2024/02/06 03:05:54;;;;;;;24.10;8.30;;;9.30;99.90;;;;;;4936767;29;20149;-73
2024/02/06 03:08:20;;;;;;;18.17;7.47;;;9.30;99.90;;;;;;4936823;29;20023;-73
2024/02/06 03:10:45;;;;;;;20.60;8.15;;;9.30;99.90;;;;;;4937090;29;20034;-73
2024/02/06 03:13:11;;;;;;;24.83;7.78;;;9.30;99.90;;;;;;4954334;28;20028;-72
2024/02/06 03:15:37;;;;;;;16.25;6.68;;;9.30;99.90;;;;;;4954379;28;20024;-73
2024/02/06 03:18:02;;;;;;;24.45;7.85;;;9.30;99.90;;;;;;4953976;28;20054;-73
2024/02/06 03:20:28;;;;;;;22.52;8.05;;;9.30;99.90;;;;;;4936677;28;20020;-74
2024/02/06 03:22:54;;;;;;;18.90;7.40;;;9.30;99.90;;;;;;4953907;29;20043;-73
2024/02/06 03:25:20;;;;;;;21.50;7.97;;;9.20;99.90;;;;;;4953947;28;20020;-74
2024/02/06 03:27:45;;;;;;;26.02;8.05;;;9.20;99.90;;;;;;4937103;29;20038;-76
2024/02/06 03:30:12;;;;;;;25.20;8.13;;;9.20;99.90;;;;;;4954548;29;20024;-74
2024/02/06 03:32:37;;;;;;;25.92;9.20;;;9.20;99.90;;;;;;4953520;28;20034;-76
2024/02/06 03:35:04;;;;;;;24.77;7.68;;;9.20;99.90;;;;;;4953472;29;20028;-71
2024/02/06 03:37:29;;;;;;;26.10;8.00;;;9.20;99.90;;;;;;4954011;28;20035;-75
2024/02/06 03:39:55;;;;;;;22.98;7.20;;;9.20;99.90;;;;;;4936486;28;20032;-75
2024/02/06 03:42:20;;;;;;;24.27;9.23;;;9.20;99.90;;;;;;4936311;29;20039;-73
2024/02/06 03:44:46;;;;;;;26.55;9.20;;;9.20;99.90;;;;;;4936511;29;20031;-73
2024/02/06 03:47:12;;;;;;;24.85;8.60;;;9.20;99.90;;;;;;4937046;29;20054;-75
2024/02/06 03:49:37;;;;;;;25.45;8.52;;;9.20;99.90;;;;;;4936855;29;20019;-77
2024/02/06 03:52:03;;;;;;;24.20;8.18;;;9.20;99.90;;;;;;4953599;28;20737;-74
2024/02/06 03:54:29;;;;;;;24.70;8.05;;;9.20;99.90;;;;;;4936055;28;20052;-73
2024/02/06 03:56:54;;;;;;;28.52;8.40;;;9.20;99.90;;;;;;4953926;29;20027;-73
2024/02/06 03:59:20;;;;;;;22.80;9.15;;;9.20;99.90;;;;;;4953987;28;20038;-74
2024/02/06 04:01:45;;;;;;;18.27;7.13;;;9.20;99.90;;;;;;4952596;28;20031;-74
2024/02/06 04:04:11;;;;;;;24.85;9.48;;;9.20;99.90;;;;;;4953793;28;20040;-74
2024/02/06 04:06:36;;;;;;;21.73;8.43;;;9.20;99.90;;;;;;4954554;29;20030;-73
2024/02/06 04:09:03;;;;;;;17.48;7.40;;;9.20;99.90;;;;;;4935789;29;20154;-74
2024/02/06 04:11:29;;;;;;;23.30;8.18;;;9.10;99.90;;;;;;4952172;28;20028;-73
2024/02/06 04:13:54;;;;;;;23.48;9.15;;;9.20;99.90;;;;;;4953736;28;20035;-73
2024/02/06 04:16:20;;;;;;;25.05;8.90;;;9.20;99.90;;;;;;4954025;28;20024;-71
2024/02/06 04:18:45;;;;;;;20.08;8.05;;;9.20;99.90;;;;;;4936890;29;20028;-74
2024/02/06 04:21:11;;;;;;;31.15;10.15;;;9.20;99.90;;;;;;4953908;28;20528;-75
2024/02/06 04:23:37;;;;;;;25.67;7.70;;;9.30;99.90;;;;;;4936030;29;20125;-74
2024/02/06 04:26:05;;;;;;;25.95;8.45;;;9.30;99.90;;;;;;4953531;28;20031;-73
2024/02/06 04:28:31;;;;;;;26.13;8.18;;;9.30;99.90;;;;;;4936410;29;20024;-75
2024/02/06 04:30:57;;;;;;;22.05;8.15;;;9.30;99.90;;;;;;4935745;29;20031;-74
2024/02/06 04:33:22;;;;;;;28.10;8.18;;;9.30;99.90;;;;;;4953739;28;20058;-76
2024/02/06 04:35:48;;;;;;;23.70;8.68;;;9.30;99.90;;;;;;4954055;28;20027;-73
2024/02/06 04:38:14;;;;;;;30.77;8.52;;;9.30;99.90;;;;;;4957996;28;20106;-73
2024/02/06 04:40:39;;;;;;;24.25;8.57;;;9.40;99.90;;;;;;4940552;28;20042;-74
2024/02/06 04:43:05;;;;;;;24.98;8.25;;;9.40;99.90;;;;;;4957005;28;20048;-74
2024/02/06 04:45:31;;;;;;;19.88;7.72;;;9.40;99.90;;;;;;4940754;29;20632;-74
2024/02/06 04:47:57;;;;;;;28.20;8.10;;;9.40;99.90;;;;;;4957361;28;20023;-75
2024/02/06 04:50:23;;;;;;;21.80;7.35;;;9.40;99.90;;;;;;4956756;28;20047;-72
2024/02/06 04:52:48;;;;;;;24.65;8.52;;;9.40;99.90;;;;;;4956441;29;20134;-74
2024/02/06 04:55:14;;;;;;;27.42;7.90;;;9.40;99.90;;;;;;4957471;28;20024;-75
2024/02/06 04:57:40;;;;;;;25.73;8.68;;;9.40;99.90;;;;;;4939562;29;20031;-77
2024/02/06 05:00:12;;;;;;;29.25;9.02;;;9.40;99.90;;;;;;4956726;28;20079;-75
2024/02/06 05:02:40;;;;;;;30.05;8.05;;;9.40;99.90;;;;;;4956705;28;20114;-74
2024/02/06 05:05:06;;;;;;;23.60;8.00;;;9.40;99.90;;;;;;4956381;28;20047;-73
2024/02/06 05:07:32;;;;;;;26.02;8.30;;;9.40;99.90;;;;;;4956681;28;20079;-76
2024/02/06 05:09:58;;;;;;;22.48;7.72;;;9.50;99.90;;;;;;4956455;28;20110;-77
2024/02/06 05:12:24;;;;;;;24.95;7.88;;;9.50;99.90;;;;;;4938790;29;20059;-73
2024/02/06 05:14:53;;;;;;;27.60;8.75;;;9.50;99.90;;;;;;4956349;28;20019;-75
2024/02/06 05:17:21;;;;;;;26.33;8.18;;;9.50;99.90;;;;;;4939871;29;20030;-74
2024/02/06 05:19:47;;;;;;;18.88;7.57;;;9.50;99.90;;;;;;4956606;28;20043;-75
2024/02/06 05:22:13;;;;;;;23.83;8.00;;;9.40;99.90;;;;;;4939629;29;20030;-75
2024/02/06 05:24:39;;;;;;;28.00;8.20;;;9.50;99.90;;;;;;4957083;28;20031;-74
2024/02/06 05:27:04;;;;;;;22.55;8.63;;;9.50;99.90;;;;;;4939826;29;20496;-76
2024/02/06 05:29:31;;;;;;;23.58;8.20;;;9.40;99.90;;;;;;4940653;28;20058;-72
2024/02/06 05:31:57;;;;;;;26.65;8.50;;;9.40;99.90;;;;;;4955603;28;20027;-77
2024/02/06 05:34:23;;;;;;;25.08;8.77;;;9.40;99.90;;;;;;4956175;28;20023;-75
2024/02/06 05:36:49;;;;;;;35.03;8.93;;;9.30;99.90;;;;;;4939969;29;20522;-74
2024/02/06 05:39:14;;;;;;;30.67;10.25;;;9.30;99.90;;;;;;4939662;29;20031;-76
2024/02/06 05:41:40;;;;;;;27.65;10.02;;;9.30;99.90;;;;;;4953618;28;20015;-75
2024/02/06 05:44:06;;;;;;;17.10;6.65;;;9.20;99.90;;;;;;4934907;29;20039;-74
2024/02/06 05:46:31;;;;;;;22.10;8.32;;;9.20;99.90;;;;;;4933685;29;20134;-72
2024/02/06 05:48:57;;;;;;;27.20;9.55;;;9.20;99.90;;;;;;4952029;28;20039;-73
2024/02/06 05:51:23;;;;;;;32.33;9.40;;;9.20;99.90;;;;;;4953087;29;20069;-73
2024/02/06 05:53:49;;;;;;;30.02;8.73;;;9.10;99.90;;;;;;4937966;29;20118;-77
2024/02/06 05:56:14;;;;;;;28.60;8.70;;;9.30;99.90;;;;;;4939645;29;20023;-73
2024/02/06 05:58:42;;;;;;;31.35;9.00;;;9.10;99.90;;;;;;4954852;28;20062;-73
2024/02/06 06:01:08;;;;;;;19.90;6.95;;;9.10;99.90;;;;;;4953833;28;20031;-76
2024/02/06 06:03:34;;;;;;;26.85;9.57;;;9.10;99.90;;;;;;4953592;28;20475;-75
2024/02/06 06:06:00;;;;;;;24.42;8.70;;;9.10;99.90;;;;;;4936103;29;20066;-75
2024/02/06 06:08:25;;;;;;;36.85;9.48;;;9.10;99.90;;;;;;4954326;28;20042;-75
2024/02/06 06:10:51;;;;;;;25.38;10.02;;;9.10;99.90;;;;;;4954281;28;20019;-77
2024/02/06 06:13:16;;;;;;;27.88;9.52;;;9.10;99.90;;;;;;4953317;28;20109;-75
2024/02/06 06:15:42;;;;;;;26.85;9.38;;;9.10;99.90;;;;;;4936136;29;20054;-74
2024/02/06 06:18:07;;;;;;;25.95;9.02;;;9.10;99.90;;;;;;4952460;28;20054;-76
2024/02/06 06:20:34;;;;;;;26.83;9.40;;;9.10;99.90;;;;;;4950841;28;20035;-77
2024/02/06 06:22:59;;;;;;;31.35;8.73;;;9.10;99.90;;;;;;4950266;28;20058;-78
2024/02/06 06:25:25;;;;;;;24.63;8.77;;;9.10;99.90;;;;;;4954407;28;20058;-75
2024/02/06 06:27:52;;;;;;;23.02;7.40;;;9.10;99.90;;;;;;4938661;29;20034;-77
2024/02/06 06:30:18;;;;;;;29.55;9.15;;;9.10;99.90;;;;;;4954147;29;20032;-74
2024/02/06 06:32:43;;;;;;;26.83;8.05;;;9.10;99.90;;;;;;4934426;29;20028;-73
2024/02/06 06:35:09;;;;;;;31.02;9.30;;;9.10;99.90;;;;;;4938425;28;20031;-72
2024/02/06 06:37:35;;;;;;;29.67;9.13;;;9.00;99.90;;;;;;4937847;29;20031;-74
2024/02/06 06:40:04;;;;;;;28.88;9.73;;;9.00;99.90;;;;;;4953806;28;20061;-73
2024/02/06 06:42:30;;;;;;;25.10;8.80;;;9.00;99.90;;;;;;4954611;29;20034;-74
2024/02/06 06:44:56;;;;;;;28.67;10.02;;;9.00;99.90;;;;;;4937596;29;20038;-73
2024/02/06 06:47:22;;;;;;;25.70;9.38;;;9.00;99.90;;;;;;4954290;28;20023;-75
2024/02/06 06:49:48;;;;;;;28.60;9.35;;;8.90;99.90;;;;;;4936742;28;20032;-76
2024/02/06 06:52:13;;;;;;;28.10;9.55;;;8.90;99.90;;;;;;4937824;29;20019;-76
2024/02/06 06:54:39;;;;;;;28.70;8.80;;;8.90;99.90;;;;;;4938178;29;20488;-76
2024/02/06 06:57:05;;;;;;;31.05;8.60;;;8.90;99.90;;;;;;4953765;28;20075;-74
2024/02/06 06:59:31;;;;;;;32.38;8.82;;;8.90;99.90;;;;;;4953542;28;20050;-75
2024/02/06 07:01:58;;;;;;;33.08;9.35;;;8.90;99.90;;;;;;4952823;29;20031;-74
2024/02/06 07:04:27;;;;;;;34.72;8.88;;;8.80;99.90;;;;;;4938055;29;20039;-76
2024/02/06 07:06:53;;;;;;;30.00;8.63;;;8.80;99.90;;;;;;4954902;28;20039;-75
2024/02/06 07:09:21;;;;;;;26.63;8.43;;;8.80;99.90;;;;;;4937238;28;20047;-74
2024/02/06 07:11:48;;;;;;;32.70;10.52;;;8.80;99.90;;;;;;4937184;29;20412;-76
2024/02/06 07:14:14;;;;;;;28.90;9.88;;;8.80;99.90;;;;;;4937211;29;20087;-75
2024/02/06 07:16:40;;;;;;;29.10;8.85;;;8.80;99.90;;;;;;4954091;28;20044;-75
2024/02/06 07:19:06;;;;;;;26.63;10.00;;;8.80;99.90;;;;;;4937445;29;20032;-75
2024/02/06 07:21:32;;;;;;;29.10;9.35;;;8.80;99.90;;;;;;4953972;28;20030;-73
2024/02/06 07:23:57;;;;;;;34.22;9.73;;;8.80;99.90;;;;;;4954378;28;20040;-74
2024/02/06 07:26:23;;;;;;;33.90;9.20;;;8.80;99.90;;;;;;4937535;28;20472;-76
2024/02/06 07:28:48;;;;;;;30.05;9.13;;;8.80;99.90;;;;;;4953877;28;20022;-76
2024/02/06 07:31:14;;;;;;;31.25;10.65;;;8.80;99.90;;;;;;4954002;28;20020;-74
2024/02/06 07:33:43;;;;;;;31.83;9.65;;;8.90;99.90;;;;;;4937090;29;20031;-75
2024/02/06 07:36:09;;;;;;;32.90;9.52;;;8.90;99.90;;;;;;4936554;29;20027;-74
2024/02/06 07:38:35;;;;;;;29.70;9.55;;;8.90;99.90;;;;;;4948704;29;20462;-75
2024/02/06 07:41:02;;;;;;;35.25;10.32;;;8.90;99.90;;;;;;4952078;28;20034;-76
2024/02/06 07:43:28;;;;;;;27.90;9.80;;;8.90;99.90;;;;;;4934918;29;20489;-74
2024/02/06 07:45:54;;;;;;;28.15;8.80;;;8.90;99.90;;;;;;4949837;29;20059;-76
2024/02/06 07:48:20;;;;;;;24.75;8.93;;;8.90;99.90;;;;;;4950891;29;20062;-75
2024/02/06 07:50:47;;;;;;;30.38;8.88;;;9.00;99.90;;;;;;4950782;29;20031;-74
2024/02/06 07:53:13;;;;;;;27.77;10.20;;;9.00;99.90;;;;;;4937708;29;20034;-75
2024/02/06 07:55:40;;;;;;;38.67;10.82;;;9.00;99.90;;;;;;4937355;29;20040;-75
2024/02/06 07:58:06;;;;;;;26.63;9.38;;;9.00;99.90;;;;;;4936592;29;20444;-75
2024/02/06 08:00:32;;;;;;;21.13;9.02;;;9.10;99.90;;;;;;4952851;28;20458;-74
2024/02/06 08:02:57;;;;;;;30.40;8.77;;;9.10;99.90;;;;;;4936954;28;20058;-73
2024/02/06 08:05:25;;;;;;;23.70;8.60;;;9.10;99.90;;;;;;4953848;28;20102;-75
2024/02/06 08:07:51;;;;;;;35.25;9.45;;;9.10;99.90;;;;;;4954381;29;20074;-74
2024/02/06 08:10:17;;;;;;;30.92;10.07;;;9.20;99.90;;;;;;4955387;28;20055;-76
2024/02/06 08:12:43;;;;;;;24.58;8.18;;;9.20;99.90;;;;;;4957304;28;20031;-78
2024/02/06 08:15:09;;;;;;;30.10;8.52;;;9.20;99.90;;;;;;4957467;29;20122;-76
2024/02/06 08:17:42;;;;;;;24.85;8.80;;;9.20;99.90;;;;;;4957933;28;20065;-73
2024/02/06 08:20:10;;;;;;;26.75;8.20;;;9.20;99.90;;;;;;4939284;28;20031;-75
2024/02/06 08:22:36;;;;;;;31.88;8.88;;;9.20;99.90;;;;;;4939597;29;20043;-74
2024/02/06 08:25:04;;;;;;;31.35;9.57;;;9.20;99.90;;;;;;4956322;28;20035;-76
2024/02/06 08:27:34;;;;;;;31.67;9.70;;;9.20;99.90;;;;;;4939899;29;20035;-74
2024/02/06 08:30:01;;;;;;;25.70;8.68;;;9.20;99.90;;;;;;4940799;29;20437;-72
2024/02/06 08:32:26;;;;;;;26.52;7.78;;;9.20;99.90;;;;;;4937872;29;20055;-76
2024/02/06 08:34:52;;;;;;;27.88;9.25;;;9.20;99.90;;;;;;4938532;29;20031;-73
2024/02/06 08:37:18;;;;;;;29.50;11.13;;;9.20;99.90;;;;;;4940753;29;20084;-74
2024/02/06 08:39:43;;;;;;;34.53;10.38;;;9.10;99.90;;;;;;4938921;29;20696;-75
2024/02/06 08:42:10;;;;;;;30.63;10.52;;;9.10;99.90;;;;;;4939755;29;20055;-74
2024/02/06 08:44:36;;;;;;;29.15;10.25;;;9.10;99.90;;;;;;4954124;28;20046;-72
2024/02/06 08:47:02;;;;;;;23.88;9.30;;;9.10;99.90;;;;;;4938522;28;20027;-75
2024/02/06 08:49:27;;;;;;;35.00;8.38;;;9.20;99.90;;;;;;4957063;28;20016;-76
2024/02/06 08:51:53;;;;;;;27.83;10.27;;;9.20;99.90;;;;;;4956747;28;20046;-76
2024/02/06 08:54:20;;;;;;;31.08;10.25;;;9.00;99.90;;;;;;4939456;28;20115;-76
2024/02/06 08:56:47;;;;;;;30.33;9.93;;;9.10;99.90;;;;;;4956713;28;20046;-74
2024/02/06 08:59:12;;;;;;;25.98;9.20;;;9.10;99.90;;;;;;4939164;29;20388;-74
2024/02/06 09:01:38;;;;;;;34.50;10.23;;;9.10;99.90;;;;;;4936902;29;20027;-74
2024/02/06 09:04:05;;;;;;;29.90;9.95;;;9.20;99.90;;;;;;4939530;29;20043;-75
2024/02/06 09:06:30;;;;;;;34.25;10.82;;;9.20;99.90;;;;;;4956621;28;20420;-74
2024/02/06 09:08:58;;;;;;;24.67;9.05;;;9.20;99.90;;;;;;4937934;29;20094;-77
2024/02/06 09:11:24;;;;;;;35.00;10.38;;;9.20;99.90;;;;;;4929472;29;20477;-75
2024/02/06 09:13:50;;;;;;;27.52;10.10;;;9.20;99.90;;;;;;4937300;29;20031;-75
2024/02/06 09:16:16;;;;;;;24.83;9.10;;;9.20;99.90;;;;;;4937409;28;20125;-73
2024/02/06 09:18:42;;;;;;;34.92;9.45;;;9.20;99.90;;;;;;4935895;29;20099;-79
2024/02/06 09:21:07;;;;;;;34.97;10.73;;;9.30;99.90;;;;;;4938595;28;20035;-74
2024/02/06 09:23:33;;;;;;;23.10;8.10;;;9.30;99.90;;;;;;4936477;28;20035;-74
2024/02/06 09:26:00;;;;;;;33.47;10.45;;;9.20;99.90;;;;;;4938586;28;20027;-75
2024/02/06 09:28:27;;;;;;;33.08;9.23;;;9.30;99.90;;;;;;4937491;28;20028;-76
2024/02/06 09:30:52;;;;;;;30.67;9.80;;;9.30;99.90;;;;;;4935530;29;20023;-73
2024/02/06 09:33:18;;;;;;;32.75;9.32;;;9.30;99.90;;;;;;4939998;28;20062;-73
2024/02/06 09:35:44;;;;;;;27.60;8.70;;;9.30;99.90;;;;;;4956516;29;20036;-75
2024/02/06 09:38:10;;;;;;;26.55;10.00;;;9.30;99.90;;;;;;4940424;29;20496;-75
2024/02/06 09:40:36;;;;;;;29.98;10.48;;;9.30;99.90;;;;;;4955627;28;20047;-75
2024/02/06 09:43:03;;;;;;;30.23;10.13;;;9.30;99.90;;;;;;4953146;29;20042;-75
2024/02/06 09:45:29;;;;;;;28.02;9.95;;;9.30;99.90;;;;;;4952946;28;20032;-74
2024/02/06 09:47:55;;;;;;;36.35;10.65;;;9.30;99.90;;;;;;4954260;28;20031;-74
2024/02/06 09:50:20;;;;;;;26.17;7.68;;;9.30;99.90;;;;;;4939716;28;20497;-72
2024/02/06 09:52:50;;;;;;;32.53;9.48;;;9.40;99.90;;;;;;4940159;29;20035;-75
2024/02/06 09:55:19;;;;;;;23.05;7.80;;;9.40;99.90;;;;;;4939377;29;20428;-76
2024/02/06 09:57:46;;;;;;;29.08;8.15;;;9.40;99.90;;;;;;4938464;29;20035;-74
2024/02/06 10:00:13;;;;;;;26.90;8.35;;;9.40;99.90;;;;;;4951907;28;20031;-76
2024/02/06 10:02:43;;;;;;;26.75;7.82;;;9.50;99.90;;;;;;4937401;29;20047;-73
2024/02/06 10:05:32;;;;;;;30.80;8.90;;;9.50;99.90;;;;;;4938424;29;20027;-74
2024/02/06 10:07:59;;;;;;;26.58;8.07;;;9.50;99.90;;;;;;4938834;29;20027;-75
2024/02/06 10:10:26;;;;;;;29.13;8.32;;;9.60;99.90;;;;;;4936316;29;20054;-76
2024/02/06 10:12:51;;;;;;;20.15;6.93;;;9.60;99.90;;;;;;4955228;29;20023;-74
2024/02/06 10:15:23;;;;;;;24.60;7.72;;;9.60;99.90;;;;;;4950327;28;20677;-73
2024/02/06 10:17:49;;;;;;;28.05;8.02;;;9.60;99.90;;;;;;4947511;28;20055;-74
2024/02/06 10:20:15;;;;;;;28.38;7.57;;;9.80;99.90;;;;;;4934379;29;20043;-75
2024/02/06 10:22:43;;;;;;;31.58;8.35;;;9.70;99.90;;;;;;4934795;28;20047;-75
2024/02/06 10:25:10;;;;;;;35.42;7.65;;;9.80;99.90;;;;;;4935750;29;21003;-75
2024/02/06 10:27:35;;;;;;;21.05;7.55;;;9.80;99.90;;;;;;4954950;28;20016;-75
2024/02/06 10:30:03;;;;;;;30.25;7.63;;;9.80;99.90;;;;;;4936755;29;20036;-76
2024/02/06 10:32:35;;;;;;;27.05;7.57;;;9.80;99.90;;;;;;4938509;28;20027;-76
2024/02/06 10:35:05;;;;;;;28.20;7.45;;;9.80;99.90;;;;;;4936886;28;20039;-79
2024/02/06 10:37:35;;;;;;;25.85;7.55;;;9.80;99.90;;;;;;4936938;29;20519;-75
2024/02/06 10:40:09;;;;;;;24.92;7.22;;;9.80;99.90;;;;;;4936207;29;20038;-76
2024/02/06 10:42:35;;;;;;;28.13;7.10;;;9.90;99.90;;;;;;4938256;28;20019;-76
2024/02/06 10:45:01;;;;;;;31.75;7.13;;;9.90;99.90;;;;;;4936147;29;20035;-77
2024/02/06 10:47:27;;;;;;;30.42;6.70;;;9.90;99.90;;;;;;4936745;28;20102;-77
2024/02/06 10:50:01;;;;;;;33.83;7.70;;;9.80;99.90;;;;;;4936864;28;20098;-76
2024/02/06 10:52:27;;;;;;;24.15;6.72;;;9.90;99.90;;;;;;4936473;29;20036;-74
2024/02/06 10:54:53;;;;;;;24.25;6.93;;;9.80;99.90;;;;;;4954907;28;20032;-75
2024/02/06 10:57:23;;;;;;;22.85;6.78;;;9.80;99.90;;;;;;4933784;29;20408;-75
2024/02/06 11:00:15;;;;;;;22.10;6.10;;;9.80;99.90;;;;;;4935542;29;20038;-77
2024/02/06 11:02:46;;;;;;;24.17;6.78;;;9.80;99.90;;;;;;4935752;29;20047;-73
2024/02/06 11:05:33;;;;;;;18.15;6.03;;;9.80;99.90;;;;;;4937931;29;20028;-76
2024/02/06 11:08:01;;;;;;;33.70;7.70;;;9.80;99.90;;;;;;4935272;28;20031;-72
2024/02/06 11:10:36;;;;;;;26.85;6.82;;;9.80;99.90;;;;;;4951752;28;20051;-74
2024/02/06 11:13:22;;;;;;;;;;;9.80;99.90;;;;;;4953501;28;20087;-73
2024/02/06 11:15:49;;;;;;;30.73;6.85;;;9.80;99.90;;;;;;4925392;28;19986;-77
2024/02/06 11:18:18;;;;;;;20.08;6.53;;;9.80;99.90;;;;;;4952745;28;20031;-74
2024/02/06 11:20:46;;;;;;;21.00;7.75;;;9.80;99.90;;;;;;4955032;28;20139;-75
2024/02/06 11:23:18;;;;;;;31.25;7.28;;;9.80;99.90;;;;;;4952867;28;20039;-71
2024/02/06 11:25:46;;;;;;;24.38;6.53;;;9.80;99.90;;;;;;4950989;28;20052;-74
2024/02/06 11:28:14;;;;;;;23.13;6.30;;;9.80;99.90;;;;;;4952309;28;20042;-75
2024/02/06 11:30:41;;;;;;;25.63;6.35;;;9.80;99.90;;;;;;4935504;28;20027;-75
2024/02/06 11:33:09;;;;;;;20.67;6.53;;;9.80;99.90;;;;;;4953414;28;20082;-73
2024/02/06 11:35:37;;;;;;;26.80;6.25;;;9.80;99.90;;;;;;4935961;29;20030;-72
2024/02/06 11:38:03;;;;;;;25.00;7.20;;;9.80;99.90;;;;;;4935693;29;20031;-75
2024/02/06 11:40:31;;;;;;;29.23;7.00;;;9.70;99.90;;;;;;4935988;28;20059;-74
2024/02/06 11:43:04;;;;;;;21.88;5.90;;;9.80;99.90;;;;;;4951761;28;20046;-74
2024/02/06 11:45:31;;;;;;;26.47;6.10;;;9.80;99.90;;;;;;4936129;29;20062;-74
2024/02/06 11:48:01;;;;;;;26.73;8.45;;;9.80;99.90;;;;;;4946645;28;20037;-74
2024/02/06 11:50:34;;;;;;;23.42;7.28;;;9.80;99.90;;;;;;4949454;28;20063;-74
2024/02/06 11:53:09;;;;;;;18.90;5.70;;;9.80;99.90;;;;;;4951855;28;20027;-75
2024/02/06 11:55:35;;;;;;;25.52;8.00;;;9.80;99.90;;;;;;4931956;29;20076;-76
2024/02/06 11:58:01;;;;;;;27.20;7.18;;;9.80;99.90;;;;;;4934607;28;20024;-75
2024/02/06 12:00:27;;;;;;;23.35;6.97;;;9.80;99.90;;;;;;4951708;28;20094;-72
2024/02/06 12:02:54;;;;;;;27.77;7.40;;;9.80;99.90;;;;;;4952294;28;20058;-70
2024/02/06 12:05:21;;;;;;;26.98;8.27;;;9.70;99.90;;;;;;4935706;29;20076;-75
2024/02/06 12:07:55;;;;;;;44.95;8.25;;;9.80;99.90;;;;;;4933498;29;20046;-76
2024/02/06 12:10:47;;;;;;;22.52;7.05;;;9.80;99.90;;;;;;4952379;28;20043;-74
2024/02/06 12:13:13;;;;;;;27.02;7.18;;;9.70;99.90;;;;;;4951274;28;20063;-72
2024/02/06 12:15:40;;;;;;;24.17;7.60;;;9.80;99.90;;;;;;4936484;28;20036;-72
2024/02/06 12:18:12;;;;;;;30.90;8.52;;;9.70;99.90;;;;;;4953036;28;20023;-72
2024/02/06 12:20:40;;;;;;;23.08;7.82;;;9.70;99.90;;;;;;4953330;28;20079;-72
2024/02/06 12:23:07;;;;;;;33.45;9.00;;;9.80;99.90;;;;;;4953369;29;20484;-73
2024/02/06 12:25:39;;;;;;;26.63;7.13;;;9.80;99.90;;;;;;4935802;29;20031;-71
2024/02/06 12:28:12;;;;;;;18.05;6.18;;;9.80;99.90;;;;;;4953724;28;20035;-73
2024/02/06 12:30:43;;;;;;;27.63;7.97;;;9.90;99.90;;;;;;4951070;28;20019;-73
2024/02/06 12:33:09;;;;;;;24.02;7.50;;;9.90;99.90;;;;;;4933475;29;20031;-74
2024/02/06 12:35:37;;;;;;;25.17;8.18;;;9.90;99.90;;;;;;4935388;29;20042;-74
2024/02/06 12:38:03;;;;;;;26.42;8.40;;;9.90;99.90;;;;;;4934010;29;20091;-72
2024/02/06 12:40:33;;;;;;;25.83;8.23;;;9.90;99.90;;;;;;4934543;28;20023;-71
2024/02/06 12:43:07;;;;;;;28.75;7.75;;;9.90;99.90;;;;;;4934442;28;20036;-73